Time;durP1;ratioP1;P1;durP2;ratioP2;P2;SDS_P1;SDS_P2;PMS_P1;PMS_P2;Temp;Humidity;BMP_temperature;BMP_pressure;BME280_temperature;BME280_humidity;BME280_pressure;Samples;Min_cycle;Max_cycle;Signal;HPM_P1;HPM_P2
2022/09/18 00:13:20;;;;;;;6.5;0.7;;;;;;;;;;;;;-76
2022/09/18 00:43:25;;;;;;;4.3;0.7;;;;;;;;;;;;;-78
2022/09/18 01:13:28;;;;;;;6;0.9;;;;;;;;;;;;;-79
2022/09/18 01:43:23;;;;;;;6.9;0.8;;;;;;;;;;;;;-79
2022/09/18 02:13:27;;;;;;;2.3;0.6;;;;;;;;;;;;;-78
2022/09/18 02:43:36;;;;;;;3.2;0.6;;;;;;;;;;;;;-78
2022/09/18 03:13:27;;;;;;;2.9;0.4;;;;;;;;;;;;;-77
2022/09/18 03:43:29;;;;;;;4.8;0.7;;;;;;;;;;;;;-77
2022/09/18 04:13:28;;;;;;;4.9;0.6;;;;;;;;;;;;;-78
2022/09/18 04:43:29;;;;;;;4.6;0.6;;;;;;;;;;;;;-78
2022/09/18 05:13:30;;;;;;;4.2;0.7;;;;;;;;;;;;;-78
2022/09/18 05:43:30;;;;;;;2.7;0.7;;;;;;;;;;;;;-79
2022/09/18 06:13:32;;;;;;;2.9;0.7;;;;;;;;;;;;;-77
2022/09/18 06:43:32;;;;;;;3.4;0.7;;;;;;;;;;;;;-77
2022/09/18 07:13:36;;;;;;;1.4;0.4;;;;;;;;;;;;;-78
2022/09/18 07:43:34;;;;;;;2.4;0.6;;;;;;;;;;;;;-78
2022/09/18 08:13:35;;;;;;;2.5;0.7;;;;;;;;;;;;;-79
2022/09/18 08:43:50;;;;;;;3.4;0.7;;;;;;;;;;;;;-79
2022/09/18 09:13:48;;;;;;;3.3;0.7;;;;;;;;;;;;;-79
2022/09/18 09:43:42;;;;;;;5.4;0.9;;;;;;;;;;;;;-79
2022/09/18 10:13:43;;;;;;;2.7;0.6;;;;;;;;;;;;;-79
2022/09/18 10:43:41;;;;;;;4.8;0.6;;;;;;;;;;;;;-79
2022/09/18 11:13:45;;;;;;;2.1;0.5;;;;;;;;;;;;;-79
2022/09/18 11:43:43;;;;;;;2.2;0.4;;;;;;;;;;;;;-80
2022/09/18 12:13:51;;;;;;;3.2;0.7;;;;;;;;;;;;;-79
2022/09/18 12:44:00;;;;;;;2.8;0.7;;;;;;;;;;;;;-81
2022/09/18 13:13:48;;;;;;;2.9;0.5;;;;;;;;;;;;;-80
2022/09/18 13:43:51;;;;;;;3.7;0.8;;;;;;;;;;;;;-80
2022/09/18 14:14:00;;;;;;;3.7;0.5;;;;;;;;;;;;;-79
2022/09/18 14:43:54;;;;;;;2.8;0.6;;;;;;;;;;;;;-80
2022/09/18 15:13:57;;;;;;;2.1;0.5;;;;;;;;;;;;;-79
2022/09/18 15:43:54;;;;;;;3.1;0.6;;;;;;;;;;;;;-78
2022/09/18 16:13:52;;;;;;;2.8;0.6;;;;;;;;;;;;;-80
2022/09/18 16:43:53;;;;;;;3.3;0.6;;;;;;;;;;;;;-81
2022/09/18 17:13:54;;;;;;;5;0.9;;;;;;;;;;;;;-79
2022/09/18 17:43:57;;;;;;;3.3;0.8;;;;;;;;;;;;;-78
2022/09/18 18:13:57;;;;;;;5.7;1;;;;;;;;;;;;;-78
2022/09/18 18:43:58;;;;;;;4;1.1;;;;;;;;;;;;;-78
2022/09/18 19:13:59;;;;;;;3.7;1;;;;;;;;;;;;;-77
2022/09/18 19:43:58;;;;;;;6.2;1;;;;;;;;;;;;;-78
2022/09/18 20:13:59;;;;;;;9.9;1.3;;;;;;;;;;;;;-78
2022/09/18 20:44:03;;;;;;;6.9;1;;;;;;;;;;;;;-77
2022/09/18 21:14:02;;;;;;;8.6;1.3;;;;;;;;;;;;;-77
2022/09/18 21:44:02;;;;;;;5.6;0.8;;;;;;;;;;;;;-75
2022/09/18 22:14:02;;;;;;;5.2;1.1;;;;;;;;;;;;;-77
2022/09/18 22:44:02;;;;;;;7.1;1.1;;;;;;;;;;;;;-77
2022/09/18 23:14:04;;;;;;;6.5;1;;;;;;;;;;;;;-77
2022/09/18 23:44:04;;;;;;;6;1.2;;;;;;;;;;;;;-76
